Time;durP1;ratioP1;P1;durP2;ratioP2;P2;SDS_P1;SDS_P2;PMS_P1;PMS_P2;Temp;Humidity;BMP_temperature;BMP_pressure;BME280_temperature;BME280_humidity;BME280_pressure;Samples;Min_cycle;Max_cycle;Signal;HPM_P1;HPM_P2
2022/09/04 00:00:47;;;;;;;1.80;1.00;;;26.50;64.20;;;;;;4936678;29;20446;-89
2022/09/04 00:03:30;;;;;;;1.00;0.90;;;26.50;64.30;;;;;;4936444;29;20443;-93
2022/09/04 00:06:04;;;;;;;1.00;0.90;;;26.50;64.20;;;;;;4937168;29;20534;-92
2022/09/04 00:08:50;;;;;;;1.30;1.20;;;26.50;64.20;;;;;;4936244;29;20482;-92
2022/09/04 00:11:29;;;;;;;1.53;0.90;;;26.50;64.20;;;;;;4936215;29;20575;-91
2022/09/04 00:14:00;;;;;;;1.13;1.03;;;26.50;64.20;;;;;;4936970;29;20538;-93
2022/09/04 00:16:33;;;;;;;1.10;1.00;;;26.50;64.20;;;;;;4936780;29;20489;-93
2022/09/04 00:19:13;;;;;;;1.10;1.00;;;26.50;64.20;;;;;;4936106;29;20562;-93
2022/09/04 00:21:44;;;;;;;1.10;1.00;;;26.50;64.20;;;;;;4936232;29;20922;-93
2022/09/04 00:24:15;;;;;;;1.03;0.97;;;26.50;64.20;;;;;;4939399;29;20458;-91
2022/09/04 00:26:51;;;;;;;1.10;1.00;;;26.50;64.20;;;;;;4940092;29;20487;-93
2022/09/04 00:29:24;;;;;;;1.20;1.10;;;26.50;64.20;;;;;;4939778;29;20451;-93
2022/09/04 00:31:57;;;;;;;1.07;0.97;;;26.50;64.10;;;;;;4940135;29;20434;-89
2022/09/04 00:34:44;;;;;;;1.10;1.00;;;26.50;64.10;;;;;;4939497;29;20491;-93
2022/09/04 00:37:17;;;;;;;1.40;1.10;;;26.50;64.10;;;;;;4939604;29;20447;-92
2022/09/04 00:39:50;;;;;;;1.10;1.00;;;26.50;64.20;;;;;;4939671;29;20546;-93
2022/09/04 00:42:31;;;;;;;1.10;1.00;;;26.50;64.20;;;;;;4939488;29;20469;-90
2022/09/04 00:45:22;;;;;;;1.00;0.90;;;26.50;64.10;;;;;;4939750;29;20534;-89
2022/09/04 00:48:20;;;;;;;1.10;1.00;;;26.50;64.20;;;;;;4939658;29;20446;-90
2022/09/04 00:51:17;;;;;;;1.10;1.00;;;26.50;65.00;;;;;;4939512;29;20435;-93
2022/09/04 00:54:08;;;;;;;1.20;1.10;;;26.50;64.20;;;;;;4937262;29;20522;-94
2022/09/04 00:57:12;;;;;;;1.00;0.90;;;26.50;64.20;;;;;;4939358;29;20486;-89
2022/09/04 00:59:56;;;;;;;1.10;1.00;;;26.50;64.20;;;;;;4925784;29;20470;-89
2022/09/04 01:02:31;;;;;;;1.10;1.00;;;26.40;65.10;;;;;;4939679;29;20440;-93
2022/09/04 01:05:08;;;;;;;1.20;1.10;;;26.40;64.20;;;;;;4938677;29;20934;-88
2022/09/04 01:07:47;;;;;;;0.97;0.90;;;26.40;64.20;;;;;;4939270;29;20495;-92
2022/09/04 01:10:29;;;;;;;1.00;0.90;;;26.50;64.20;;;;;;4939265;29;20793;-92
2022/09/04 01:13:03;;;;;;;1.17;1.07;;;26.50;64.10;;;;;;4939018;29;20454;-92
2022/09/04 01:15:38;;;;;;;1.27;1.17;;;26.40;64.20;;;;;;4939386;29;20542;-88
2022/09/04 01:18:11;;;;;;;1.10;1.00;;;26.40;64.10;;;;;;4938412;29;20522;-92
2022/09/04 01:21:10;;;;;;;1.00;0.90;;;26.40;64.20;;;;;;4939390;29;20446;-89
2022/09/04 01:23:52;;;;;;;1.10;1.00;;;26.40;64.10;;;;;;4938742;29;20526;-89
2022/09/04 01:26:25;;;;;;;0.90;0.80;;;26.40;64.20;;;;;;4949253;29;20572;-93
2022/09/04 01:29:06;;;;;;;1.20;1.10;;;26.40;64.20;;;;;;4957817;29;20549;-93
2022/09/04 01:31:38;;;;;;;1.10;1.00;;;26.40;64.10;;;;;;4958113;29;20446;-89
2022/09/04 01:34:17;;;;;;;1.30;1.20;;;26.40;64.20;;;;;;4957136;28;20505;-89
2022/09/04 01:36:49;;;;;;;1.30;1.20;;;26.40;64.20;;;;;;4958048;29;20443;-91
2022/09/04 01:39:20;;;;;;;1.20;1.10;;;26.40;64.10;;;;;;4959679;29;20446;-91
2022/09/04 01:41:56;;;;;;;1.00;0.90;;;26.40;64.10;;;;;;4959359;29;20442;-88
2022/09/04 01:44:24;;;;;;;1.07;0.97;;;26.40;64.10;;;;;;4958630;29;20965;-92
2022/09/04 01:47:02;;;;;;;1.30;1.20;;;26.40;64.00;;;;;;4957106;29;20454;-88
2022/09/04 01:49:36;;;;;;;1.40;1.30;;;26.40;64.70;;;;;;4957337;29;20564;-90
2022/09/04 01:52:20;;;;;;;1.20;1.10;;;26.40;64.00;;;;;;4957061;29;20435;-93
2022/09/04 01:54:53;;;;;;;0.90;0.87;;;26.40;64.00;;;;;;4956943;29;20493;-89
2022/09/04 01:57:35;;;;;;;1.03;0.93;;;26.40;64.10;;;;;;4957291;29;20438;-89
2022/09/04 02:00:08;;;;;;;1.20;1.10;;;26.40;64.90;;;;;;4957177;29;20537;-90
2022/09/04 02:02:48;;;;;;;1.33;1.23;;;26.40;64.10;;;;;;4957190;29;20832;-89
2022/09/04 02:05:20;;;;;;;0.90;0.90;;;26.40;64.00;;;;;;4957178;29;20456;-93
2022/09/04 02:07:53;;;;;;;1.20;1.10;;;26.40;64.10;;;;;;4957394;29;20541;-91
2022/09/04 02:10:35;;;;;;;1.23;1.13;;;26.40;64.10;;;;;;4957121;29;20521;-89
2022/09/04 02:13:16;;;;;;;1.30;1.20;;;26.40;64.00;;;;;;4957745;29;20446;-89
2022/09/04 02:15:51;;;;;;;1.30;1.20;;;26.40;64.00;;;;;;4956792;29;20446;-89
2022/09/04 02:18:31;;;;;;;1.57;1.47;;;26.40;64.00;;;;;;4956798;29;20476;-93
2022/09/04 02:21:04;;;;;;;1.20;1.10;;;26.30;64.00;;;;;;4956669;29;20549;-89
2022/09/04 02:23:39;;;;;;;1.00;0.90;;;26.30;63.90;;;;;;4956864;29;20443;-89
2022/09/04 02:26:13;;;;;;;0.80;0.80;;;26.30;63.90;;;;;;4956971;28;20501;-89
2022/09/04 02:28:54;;;;;;;1.10;1.00;;;26.30;63.90;;;;;;4938522;29;20486;-90
2022/09/04 02:31:30;;;;;;;1.30;1.20;;;26.40;63.90;;;;;;4937835;29;20848;-89
2022/09/04 02:34:06;;;;;;;1.20;1.10;;;26.40;63.90;;;;;;4938027;29;20474;-89
2022/09/04 02:36:39;;;;;;;1.30;1.20;;;26.30;63.90;;;;;;4937648;29;20431;-89
2022/09/04 02:39:17;;;;;;;1.10;1.00;;;26.30;63.90;;;;;;4937301;29;20451;-92
2022/09/04 02:41:52;;;;;;;1.10;1.00;;;26.30;63.90;;;;;;4937346;29;20434;-89
2022/09/04 02:44:29;;;;;;;1.13;1.03;;;26.30;63.90;;;;;;4937295;29;20873;-89
2022/09/04 02:47:03;;;;;;;1.30;1.20;;;26.30;63.80;;;;;;4937340;29;20482;-93
2022/09/04 02:49:37;;;;;;;1.17;1.07;;;26.30;63.80;;;;;;4936847;29;21039;-89
2022/09/04 02:52:17;;;;;;;0.90;0.90;;;26.30;63.80;;;;;;4937250;29;20447;-89
2022/09/04 02:54:57;;;;;;;1.10;1.00;;;26.30;63.80;;;;;;4936696;29;20518;-89
2022/09/04 02:57:33;;;;;;;1.30;1.20;;;26.30;63.80;;;;;;4936782;29;20440;-93
2022/09/04 03:00:08;;;;;;;1.20;1.10;;;26.30;63.80;;;;;;4936815;29;20439;-89
2022/09/04 03:02:41;;;;;;;1.27;1.17;;;26.30;63.80;;;;;;4937467;29;20494;-89
2022/09/04 03:05:17;;;;;;;0.90;0.90;;;26.30;63.80;;;;;;4937087;29;20445;-89
2022/09/04 03:07:52;;;;;;;1.27;1.17;;;26.30;63.70;;;;;;4936633;29;20446;-89
2022/09/04 03:10:22;;;;;;;1.13;1.03;;;26.30;63.80;;;;;;4936855;29;20446;-89
2022/09/04 03:12:53;;;;;;;1.40;1.30;;;26.30;63.80;;;;;;4942592;29;20484;-89
2022/09/04 03:15:28;;;;;;;1.07;0.97;;;26.30;63.80;;;;;;4960613;29;20470;-89
2022/09/04 03:18:00;;;;;;;1.10;1.00;;;26.30;63.80;;;;;;4960690;29;20454;-89
2022/09/04 03:20:30;;;;;;;1.20;1.10;;;26.30;63.80;;;;;;4953232;29;20466;-92
2022/09/04 03:23:01;;;;;;;1.40;1.30;;;26.30;63.70;;;;;;4939723;29;20537;-89
2022/09/04 03:26:12;;;;;;;1.10;1.00;;;26.30;63.70;;;;;;4938346;29;20443;-92
2022/09/04 03:28:51;;;;;;;1.20;1.10;;;26.30;63.60;;;;;;4924780;29;20531;-89
2022/09/04 03:31:29;;;;;;;1.20;1.10;;;26.30;63.80;;;;;;4937484;29;20455;-89
2022/09/04 03:34:18;;;;;;;1.00;0.90;;;26.30;63.70;;;;;;4938752;29;20491;-89
2022/09/04 03:37:01;;;;;;;0.90;0.90;;;26.30;63.70;;;;;;4933982;29;20476;-88
2022/09/04 03:39:39;;;;;;;1.00;0.90;;;26.40;63.90;;;;;;4936916;29;20529;-89
2022/09/04 03:42:15;;;;;;;1.00;0.90;;;26.30;64.60;;;;;;4940120;29;20541;-89
2022/09/04 03:44:50;;;;;;;1.17;1.07;;;26.30;63.70;;;;;;4941573;29;20439;-88
2022/09/04 03:47:27;;;;;;;1.10;1.00;;;26.30;63.70;;;;;;4936364;29;20435;-88
2022/09/04 03:50:08;;;;;;;1.30;1.20;;;26.30;63.70;;;;;;4936579;29;20474;-92
2022/09/04 03:52:48;;;;;;;1.10;1.00;;;26.30;63.70;;;;;;4937260;29;20530;-91
2022/09/04 03:55:30;;;;;;;1.10;1.00;;;26.30;63.70;;;;;;4936227;29;20581;-89
2022/09/04 03:58:09;;;;;;;1.23;1.13;;;26.30;63.60;;;;;;4937941;29;20520;-89
2022/09/04 04:00:46;;;;;;;1.10;1.00;;;26.30;63.70;;;;;;4940356;29;20439;-92
2022/09/04 04:06:18;;;;;;;1.40;1.30;;;26.30;63.60;;;;;;5173923;27;20573;-88
2022/09/04 04:09:04;;;;;;;1.20;1.10;;;26.30;63.60;;;;;;5153290;27;20436;-88
2022/09/04 04:11:52;;;;;;;1.10;1.00;;;26.30;63.60;;;;;;5152730;27;20417;-89
2022/09/04 04:14:36;;;;;;;1.10;1.00;;;26.30;63.70;;;;;;5152912;27;20437;-89
2022/09/04 04:17:16;;;;;;;1.20;1.10;;;26.30;63.60;;;;;;5152950;27;20529;-89
2022/09/04 04:19:56;;;;;;;1.23;1.13;;;26.20;63.70;;;;;;5135996;27;20513;-88
2022/09/04 04:22:44;;;;;;;1.20;1.10;;;26.20;63.60;;;;;;5132353;28;20430;-93
2022/09/04 04:25:24;;;;;;;1.07;0.97;;;26.30;63.70;;;;;;5131845;28;20492;-91
2022/09/04 04:28:06;;;;;;;1.17;1.07;;;26.20;63.60;;;;;;5131698;28;20446;-88
2022/09/04 04:30:44;;;;;;;1.10;1.00;;;26.20;63.60;;;;;;5133638;28;20434;-88
2022/09/04 04:33:34;;;;;;;1.10;1.00;;;26.20;63.60;;;;;;5133571;28;20525;-88
2022/09/04 04:36:11;;;;;;;1.00;0.90;;;26.20;63.60;;;;;;5131895;28;20760;-91
2022/09/04 04:38:52;;;;;;;1.10;1.00;;;26.20;63.70;;;;;;5131698;28;20996;-89
2022/09/04 04:42:02;;;;;;;1.17;1.07;;;26.20;63.70;;;;;;5131686;28;20945;-89
2022/09/04 04:45:48;;;;;;;1.00;0.90;;;26.20;63.60;;;;;;5131344;28;20465;-90
2022/09/04 04:47:33;;;;;;;1.07;0.97;;;26.30;63.80;;;;;;5131132;28;20462;-88
2022/09/04 04:50:12;;;;;;;1.10;1.00;;;26.20;63.70;;;;;;5131106;27;20458;-89
2022/09/04 04:52:52;;;;;;;1.30;1.20;;;26.20;63.70;;;;;;5131365;28;20437;-88
2022/09/04 04:55:37;;;;;;;1.50;1.40;;;26.20;63.60;;;;;;5131630;28;20804;-89
2022/09/04 04:58:28;;;;;;;1.20;1.10;;;26.20;63.60;;;;;;5131711;28;20470;-88
2022/09/04 05:01:04;;;;;;;1.10;1.00;;;26.20;63.60;;;;;;5131443;28;20430;-92
2022/09/04 05:03:44;;;;;;;1.10;1.00;;;26.20;63.70;;;;;;5131234;28;20441;-89
2022/09/04 05:06:15;;;;;;;1.30;1.20;;;26.20;63.60;;;;;;5130889;28;20477;-89
2022/09/04 05:08:50;;;;;;;1.07;0.97;;;26.20;63.70;;;;;;5131033;28;20794;-89
2022/09/04 05:11:26;;;;;;;1.00;0.90;;;26.20;63.60;;;;;;5131445;28;20461;-93
2022/09/04 05:14:03;;;;;;;1.10;1.00;;;26.20;63.60;;;;;;5133065;28;20436;-93
2022/09/04 05:16:36;;;;;;;1.00;0.90;;;26.20;63.60;;;;;;5124746;28;20894;-88
2022/09/04 05:19:12;;;;;;;1.10;1.00;;;26.20;63.60;;;;;;5118098;28;20492;-88
2022/09/04 05:21:49;;;;;;;1.00;0.90;;;26.20;63.60;;;;;;5119371;28;20522;-89
2022/09/04 05:24:24;;;;;;;1.00;0.90;;;26.20;64.40;;;;;;5118303;28;20458;-93
2022/09/04 05:26:57;;;;;;;1.30;1.20;;;26.20;63.50;;;;;;5117852;28;20530;-88
2022/09/04 05:29:32;;;;;;;1.10;1.00;;;26.20;63.50;;;;;;5118864;28;20438;-93
2022/09/04 05:32:10;;;;;;;1.00;1.00;;;26.20;63.60;;;;;;5117593;28;20447;-93
2022/09/04 05:35:00;;;;;;;1.40;1.30;;;26.30;63.60;;;;;;5119485;28;20423;-89
2022/09/04 05:37:32;;;;;;;1.27;1.17;;;26.20;63.50;;;;;;5117629;28;20442;-89
2022/09/04 05:40:06;;;;;;;1.20;1.10;;;26.20;63.60;;;;;;5118292;28;20439;-89
2022/09/04 05:42:51;;;;;;;1.20;1.10;;;26.20;63.60;;;;;;5119172;28;20478;-89
2022/09/04 05:45:24;;;;;;;1.13;1.03;;;26.20;63.50;;;;;;5117141;28;20506;-89
2022/09/04 05:48:08;;;;;;;1.70;1.60;;;26.20;63.50;;;;;;5116631;28;20612;-89
2022/09/04 05:51:07;;;;;;;1.20;1.10;;;26.20;63.80;;;;;;5116462;28;20857;-89
2022/09/04 05:54:06;;;;;;;1.40;1.30;;;26.20;64.60;;;;;;5116908;28;20525;-89
2022/09/04 05:57:06;;;;;;;1.20;1.10;;;26.10;63.80;;;;;;5116324;28;20435;-87
2022/09/04 05:59:53;;;;;;;1.30;1.20;;;26.10;63.90;;;;;;5116277;28;20450;-88
2022/09/04 06:02:45;;;;;;;1.37;1.27;;;26.10;64.00;;;;;;5116202;28;20537;-87
2022/09/04 06:05:21;;;;;;;1.60;1.50;;;26.10;64.00;;;;;;5098871;28;20526;-88
2022/09/04 06:07:59;;;;;;;2.30;2.07;;;26.10;63.90;;;;;;5115889;28;20431;-86
2022/09/04 06:10:35;;;;;;;4.27;2.20;;;26.00;65.60;;;;;;5115955;28;20985;-89
2022/09/04 06:13:36;;;;;;;5.97;2.57;;;25.80;66.30;;;;;;5116154;28;20443;-90
2022/09/04 06:16:32;;;;;;;2.50;2.30;;;25.70;67.10;;;;;;5116041;28;20447;-89
2022/09/04 06:19:14;;;;;;;3.23;2.50;;;25.50;67.80;;;;;;5115642;28;20469;-86
2022/09/04 06:22:10;;;;;;;2.80;2.60;;;25.40;68.40;;;;;;5115652;28;20484;-87
2022/09/04 06:25:04;;;;;;;2.20;2.10;;;25.40;68.90;;;;;;5116062;28;20478;-88
2022/09/04 06:27:47;;;;;;;2.40;2.30;;;25.40;69.40;;;;;;5115164;28;20467;-85
2022/09/04 06:30:16;;;;;;;2.20;2.10;;;25.40;69.60;;;;;;5116029;28;20526;-88
2022/09/04 06:33:22;;;;;;;2.40;2.20;;;25.30;69.80;;;;;;5115714;28;20937;-87
2022/09/04 06:36:08;;;;;;;2.70;2.50;;;25.40;70.00;;;;;;5108864;28;20449;-86
2022/09/04 06:39:01;;;;;;;3.00;2.80;;;25.30;70.10;;;;;;5116167;28;20431;-87
2022/09/04 06:41:51;;;;;;;2.87;2.27;;;25.30;70.50;;;;;;5115644;28;20775;-88
2022/09/04 06:44:29;;;;;;;5.43;1.97;;;25.30;70.50;;;;;;5115729;28;20455;-86
2022/09/04 06:47:07;;;;;;;6.60;3.00;;;25.30;70.60;;;;;;5115413;28;20779;-88
2022/09/04 06:49:48;;;;;;;3.50;2.50;;;25.20;70.80;;;;;;5115256;28;20553;-89
2022/09/04 06:52:23;;;;;;;2.93;2.73;;;25.10;71.50;;;;;;5115129;28;20446;-86
2022/09/04 06:54:58;;;;;;;3.40;2.57;;;25.10;72.10;;;;;;5115445;28;20793;-86
2022/09/04 06:57:46;;;;;;;2.93;2.60;;;25.00;72.60;;;;;;5115532;28;20435;-86
2022/09/04 07:00:15;;;;;;;4.30;2.70;;;25.00;73.40;;;;;;5115221;28;20438;-89
2022/09/04 07:03:17;;;;;;;2.40;2.20;;;25.00;72.80;;;;;;5116711;28;20521;-86
2022/09/04 07:05:53;;;;;;;3.03;2.67;;;25.00;73.20;;;;;;5111579;28;20514;-89
2022/09/04 07:08:33;;;;;;;2.70;2.50;;;24.90;73.40;;;;;;5114882;28;20535;-87
2022/09/04 07:11:14;;;;;;;3.17;2.70;;;25.00;73.80;;;;;;5115394;28;20542;-90
2022/09/04 07:14:06;;;;;;;2.83;2.60;;;25.00;73.70;;;;;;5114648;28;20431;-87
2022/09/04 07:16:40;;;;;;;2.90;2.70;;;25.00;73.80;;;;;;5115256;28;20439;-86
2022/09/04 07:19:50;;;;;;;2.67;2.47;;;25.00;73.90;;;;;;5114622;28;20473;-87
2022/09/04 07:22:35;;;;;;;1.90;1.80;;;25.10;73.90;;;;;;5114552;28;20442;-87
2022/09/04 07:25:12;;;;;;;2.17;1.87;;;25.20;74.50;;;;;;5114850;28;20473;-88
2022/09/04 07:27:59;;;;;;;3.17;2.70;;;25.20;74.40;;;;;;5114490;28;20436;-87
2022/09/04 07:30:31;;;;;;;2.70;2.00;;;25.40;73.50;;;;;;5114963;28;20488;-89
2022/09/04 07:33:02;;;;;;;4.90;2.53;;;25.40;72.90;;;;;;5114030;28;21049;-89
2022/09/04 07:35:35;;;;;;;2.90;2.17;;;25.50;73.10;;;;;;5114459;28;20528;-87
2022/09/04 07:38:21;;;;;;;1.80;1.70;;;25.50;73.10;;;;;;5114267;28;20452;-87
2022/09/04 07:40:53;;;;;;;2.67;2.40;;;25.60;73.90;;;;;;5114180;28;20434;-87
2022/09/04 07:43:25;;;;;;;2.67;2.50;;;25.60;73.80;;;;;;5114224;28;20453;-87
2022/09/04 07:46:04;;;;;;;3.13;2.83;;;25.70;73.40;;;;;;5114349;28;20573;-87
2022/09/04 07:48:36;;;;;;;2.67;2.47;;;25.90;74.30;;;;;;5113989;28;20466;-87
2022/09/04 07:51:10;;;;;;;3.37;2.17;;;25.80;74.40;;;;;;5113538;28;20442;-87
2022/09/04 07:54:22;;;;;;;3.13;2.43;;;25.90;72.10;;;;;;5114655;28;20435;-87
2022/09/04 07:57:09;;;;;;;2.03;1.87;;;25.90;71.20;;;;;;5050640;28;20446;-87
2022/09/04 07:59:52;;;;;;;2.13;1.87;;;25.90;71.70;;;;;;5089904;28;20473;-89
2022/09/04 08:02:33;;;;;;;3.03;1.80;;;26.00;71.40;;;;;;5093691;28;20527;-87
2022/09/04 08:05:22;;;;;;;1.97;1.87;;;26.00;70.90;;;;;;5093744;28;20547;-87
2022/09/04 08:08:11;;;;;;;1.70;1.60;;;26.00;70.40;;;;;;5086794;28;20440;-89
2022/09/04 08:10:46;;;;;;;2.23;1.73;;;26.10;70.20;;;;;;5090205;28;20536;-85
2022/09/04 08:13:28;;;;;;;2.13;1.60;;;26.00;69.70;;;;;;5093533;28;20435;-86
2022/09/04 08:16:06;;;;;;;2.07;1.90;;;26.10;69.50;;;;;;5094215;28;20463;-87
2022/09/04 08:19:10;;;;;;;2.43;2.00;;;26.20;69.50;;;;;;5094487;28;20630;-88
2022/09/04 08:21:40;;;;;;;1.80;1.70;;;26.20;69.40;;;;;;5097924;28;20537;-86
2022/09/04 08:24:52;;;;;;;1.60;1.47;;;26.20;69.30;;;;;;5095750;28;20439;-84
2022/09/04 08:27:34;;;;;;;1.70;1.60;;;26.20;68.90;;;;;;5087194;28;20443;-85
2022/09/04 08:30:06;;;;;;;2.27;1.83;;;26.20;69.20;;;;;;5117946;28;20438;-89
2022/09/04 08:33:07;;;;;;;2.13;1.97;;;26.20;68.80;;;;;;5118340;28;20431;-88
2022/09/04 08:35:39;;;;;;;1.80;1.70;;;26.30;68.80;;;;;;5089626;28;20460;-86
2022/09/04 08:38:23;;;;;;;3.20;1.40;;;26.20;68.60;;;;;;5114074;28;20522;-88
2022/09/04 08:41:19;;;;;;;1.97;1.30;;;26.30;68.60;;;;;;5114266;28;20466;-87
2022/09/04 08:44:13;;;;;;;1.77;1.67;;;26.30;68.60;;;;;;5114703;28;20445;-88
2022/09/04 08:47:16;;;;;;;1.60;1.50;;;26.30;68.50;;;;;;5113820;28;20485;-87
2022/09/04 08:50:26;;;;;;;1.50;1.40;;;26.30;68.60;;;;;;5113775;28;20513;-90
2022/09/04 08:53:22;;;;;;;1.50;1.40;;;26.30;68.50;;;;;;5107002;28;20961;-89
2022/09/04 08:56:06;;;;;;;1.77;1.63;;;26.30;68.50;;;;;;5118186;28;20488;-90
2022/09/04 08:59:15;;;;;;;1.73;1.60;;;26.30;68.60;;;;;;5118567;28;20802;-89
2022/09/04 09:02:20;;;;;;;1.97;1.40;;;26.30;69.30;;;;;;5117623;28;20787;-89
2022/09/04 09:05:22;;;;;;;1.40;1.30;;;26.30;68.50;;;;;;5117623;28;20981;-89
2022/09/04 09:08:24;;;;;;;1.70;1.60;;;26.30;68.20;;;;;;5117909;28;20439;-89
2022/09/04 09:11:37;;;;;;;1.53;1.43;;;26.30;68.20;;;;;;5032365;28;20503;-89
2022/09/04 09:14:30;;;;;;;1.70;1.60;;;26.30;68.20;;;;;;5014972;28;20582;-88
2022/09/04 09:17:11;;;;;;;1.70;1.60;;;26.30;68.20;;;;;;5015062;28;20444;-88
2022/09/04 09:19:46;;;;;;;1.50;1.40;;;26.30;68.30;;;;;;5088696;28;20550;-89
2022/09/04 09:22:36;;;;;;;1.50;1.40;;;26.30;68.20;;;;;;5117792;28;20431;-89
2022/09/04 09:25:26;;;;;;;2.90;1.80;;;26.40;68.30;;;;;;5117324;28;20469;-89
2022/09/04 09:28:33;;;;;;;2.70;1.40;;;26.40;68.30;;;;;;5112459;28;20450;-89
2022/09/04 09:31:33;;;;;;;1.80;1.70;;;26.40;68.30;;;;;;5117270;28;20446;-88
2022/09/04 09:34:41;;;;;;;1.80;1.67;;;26.40;68.30;;;;;;5118011;28;20443;-89
2022/09/04 09:37:34;;;;;;;1.77;1.67;;;26.40;68.50;;;;;;5117777;28;20510;-90
2022/09/04 09:40:26;;;;;;;1.53;1.43;;;26.40;68.50;;;;;;5117871;28;20929;-90
2022/09/04 09:43:25;;;;;;;1.77;1.67;;;26.40;68.50;;;;;;5117046;28;20446;-89
2022/09/04 09:46:23;;;;;;;1.67;1.57;;;26.40;68.60;;;;;;5116499;28;21001;-89
2022/09/04 09:49:19;;;;;;;1.73;1.63;;;26.40;68.50;;;;;;5113624;28;20459;-89
2022/09/04 09:52:32;;;;;;;1.67;1.57;;;26.40;68.40;;;;;;5117200;28;20453;-89
2022/09/04 09:55:29;;;;;;;1.70;1.60;;;26.40;68.70;;;;;;5117525;28;20831;-89
2022/09/04 09:58:24;;;;;;;1.80;1.70;;;26.40;68.80;;;;;;5117207;28;20482;-88
2022/09/04 10:01:03;;;;;;;1.80;1.70;;;26.40;68.60;;;;;;5095784;28;20440;-89
2022/09/04 10:03:50;;;;;;;1.73;1.63;;;26.40;69.00;;;;;;5095982;28;20440;-89
2022/09/04 10:06:58;;;;;;;1.60;1.50;;;26.40;69.00;;;;;;5096306;28;20483;-90
2022/09/04 10:09:54;;;;;;;1.50;1.40;;;26.40;69.10;;;;;;5102527;28;20419;-89
2022/09/04 10:12:44;;;;;;;1.53;1.43;;;26.40;69.20;;;;;;5120674;28;20428;-89
2022/09/04 10:15:33;;;;;;;1.90;1.80;;;26.40;69.10;;;;;;5120707;28;20455;-88
2022/09/04 10:18:23;;;;;;;2.90;1.50;;;26.40;69.20;;;;;;5123318;28;20491;-88
2022/09/04 10:21:24;;;;;;;1.60;1.50;;;26.40;69.20;;;;;;5116530;28;20453;-88
2022/09/04 10:24:20;;;;;;;1.70;1.60;;;26.40;69.50;;;;;;5116198;28;20536;-89
2022/09/04 10:27:05;;;;;;;2.03;1.40;;;26.40;69.80;;;;;;5099504;28;20486;-91
2022/09/04 10:29:44;;;;;;;3.80;2.07;;;26.40;69.40;;;;;;5116214;28;20477;-87
2022/09/04 10:32:44;;;;;;;4.20;2.10;;;26.40;69.50;;;;;;5116211;28;20443;-85
2022/09/04 10:35:21;;;;;;;5.30;1.60;;;26.40;69.50;;;;;;5116127;28;20438;-92
2022/09/04 10:38:13;;;;;;;2.90;1.70;;;26.40;69.40;;;;;;5115504;28;20446;-86
2022/09/04 10:40:51;;;;;;;1.90;1.80;;;26.40;69.20;;;;;;5106766;28;20435;-86
2022/09/04 10:43:34;;;;;;;6.43;1.90;;;26.40;69.40;;;;;;5115627;28;20434;-86
2022/09/04 10:46:10;;;;;;;2.13;1.67;;;26.50;69.30;;;;;;5097021;28;20562;-85
2022/09/04 10:49:25;;;;;;;8.63;1.90;;;26.50;69.20;;;;;;5115058;28;20467;-87
2022/09/04 10:52:27;;;;;;;3.93;2.23;;;26.50;69.10;;;;;;5114792;28;20961;-86
2022/09/04 10:55:18;;;;;;;3.40;1.90;;;26.50;69.10;;;;;;5114738;28;20491;-86
2022/09/04 10:58:07;;;;;;;4.33;2.10;;;26.50;69.10;;;;;;5115109;28;20423;-86
2022/09/04 11:00:48;;;;;;;3.50;1.67;;;26.50;69.10;;;;;;5114897;28;20798;-86
2022/09/04 11:03:33;;;;;;;2.33;1.40;;;26.50;69.00;;;;;;5115043;28;20435;-86
2022/09/04 11:06:34;;;;;;;2.40;1.80;;;26.50;69.00;;;;;;5114592;28;20574;-87
2022/09/04 11:09:30;;;;;;;2.00;1.80;;;26.50;68.80;;;;;;5114858;28;20427;-86
2022/09/04 11:12:36;;;;;;;4.70;2.30;;;26.50;68.80;;;;;;5114900;28;20858;-86
2022/09/04 11:15:29;;;;;;;2.13;1.40;;;26.50;68.70;;;;;;5114509;28;20522;-86
2022/09/04 11:18:33;;;;;;;3.57;1.87;;;26.50;68.80;;;;;;5114521;28;20468;-86
2022/09/04 11:21:31;;;;;;;3.13;1.50;;;26.50;68.90;;;;;;5082352;28;20462;-87
2022/09/04 11:24:36;;;;;;;2.53;1.53;;;26.50;68.70;;;;;;5114679;28;20838;-87
2022/09/04 11:27:48;;;;;;;1.67;1.40;;;26.50;68.70;;;;;;5114204;28;20490;-86
2022/09/04 11:30:18;;;;;;;2.17;1.97;;;26.50;68.70;;;;;;5094121;28;20500;-86
2022/09/04 11:33:22;;;;;;;1.80;1.70;;;26.40;68.70;;;;;;5114544;28;20518;-86
2022/09/04 11:36:17;;;;;;;1.53;1.33;;;26.50;68.60;;;;;;5093760;28;20545;-85
2022/09/04 11:39:15;;;;;;;1.70;1.60;;;26.50;68.80;;;;;;5104369;28;20451;-87
2022/09/04 11:42:19;;;;;;;8.30;1.57;;;26.50;68.80;;;;;;5113899;28;20941;-86
2022/09/04 11:45:19;;;;;;;1.50;1.40;;;26.50;68.70;;;;;;5114339;28;20435;-86
2022/09/04 11:48:19;;;;;;;1.60;1.50;;;26.50;68.60;;;;;;5113839;28;20536;-87
2022/09/04 11:51:01;;;;;;;1.77;1.40;;;26.40;68.80;;;;;;5109567;28;20478;-86
2022/09/04 11:54:01;;;;;;;1.80;1.70;;;26.40;68.70;;;;;;5114124;28;20442;-87
2022/09/04 11:56:43;;;;;;;4.07;1.60;;;26.50;68.70;;;;;;5113963;28;20540;-85
2022/09/04 11:59:34;;;;;;;1.70;1.60;;;26.50;68.60;;;;;;5114298;28;20438;-87
2022/09/04 12:02:25;;;;;;;1.60;1.30;;;26.50;68.50;;;;;;5113927;28;20521;-86
2022/09/04 12:05:10;;;;;;;1.40;1.30;;;26.50;68.50;;;;;;5113891;28;20549;-87
2022/09/04 12:07:54;;;;;;;2.90;1.40;;;26.50;68.40;;;;;;5114018;28;20486;-86
2022/09/04 12:10:32;;;;;;;1.60;1.43;;;26.50;68.40;;;;;;5113975;28;20446;-85
2022/09/04 12:13:09;;;;;;;1.70;1.60;;;26.50;68.40;;;;;;5114049;28;20441;-87
2022/09/04 12:16:13;;;;;;;1.83;1.30;;;26.50;69.20;;;;;;5113901;28;20877;-87
2022/09/04 12:19:13;;;;;;;1.50;1.40;;;26.50;68.30;;;;;;5113718;28;20546;-86
2022/09/04 12:22:13;;;;;;;1.20;1.10;;;26.50;68.40;;;;;;5114068;28;20527;-86
2022/09/04 12:25:25;;;;;;;1.20;1.10;;;26.50;68.40;;;;;;5111061;28;20816;-87
2022/09/04 12:28:28;;;;;;;1.20;1.10;;;26.50;68.30;;;;;;5117607;28;20484;-86
2022/09/04 12:31:09;;;;;;;1.60;1.50;;;26.50;68.30;;;;;;5118021;28;20493;-86
2022/09/04 12:34:08;;;;;;;1.20;1.10;;;26.50;68.30;;;;;;5117938;28;20503;-86
2022/09/04 12:37:12;;;;;;;1.67;1.50;;;26.50;69.00;;;;;;5117727;28;20449;-86
2022/09/04 12:40:09;;;;;;;1.43;1.33;;;26.50;68.10;;;;;;5075804;28;20522;-87
2022/09/04 12:42:42;;;;;;;1.30;1.20;;;26.50;68.20;;;;;;5100493;28;20488;-86
2022/09/04 12:45:21;;;;;;;1.20;1.10;;;26.50;68.30;;;;;;5117536;28;20445;-86
2022/09/04 12:47:57;;;;;;;1.50;1.40;;;26.50;69.10;;;;;;5117421;28;20907;-86
2022/09/04 12:50:32;;;;;;;1.63;1.53;;;26.50;68.20;;;;;;5117407;28;20538;-87
2022/09/04 12:53:14;;;;;;;1.67;1.57;;;26.50;68.10;;;;;;5117562;28;20526;-86
2022/09/04 12:55:48;;;;;;;1.57;1.43;;;26.50;68.10;;;;;;5117207;28;20495;-86
2022/09/04 12:58:24;;;;;;;1.67;1.40;;;26.50;68.10;;;;;;5117421;28;20452;-86
2022/09/04 13:01:08;;;;;;;1.20;1.07;;;26.50;68.10;;;;;;5117405;28;20473;-87
2022/09/04 13:03:46;;;;;;;1.30;1.20;;;26.50;68.10;;;;;;5117750;28;20481;-86
2022/09/04 13:06:26;;;;;;;1.30;1.20;;;26.50;68.90;;;;;;5117699;28;20459;-86
2022/09/04 13:09:04;;;;;;;1.53;1.40;;;26.50;67.90;;;;;;5117224;28;20474;-86
2022/09/04 13:11:47;;;;;;;1.40;1.20;;;26.50;68.00;;;;;;5117062;28;20423;-86
2022/09/04 13:14:49;;;;;;;1.40;1.20;;;26.50;68.00;;;;;;5117237;28;21029;-86
2022/09/04 13:17:27;;;;;;;1.30;1.20;;;26.50;67.90;;;;;;5116676;28;20460;-86
2022/09/04 13:20:04;;;;;;;1.47;1.20;;;26.50;67.90;;;;;;5117034;28;20545;-86
2022/09/04 13:22:38;;;;;;;1.60;1.50;;;26.50;67.90;;;;;;5117046;28;20481;-87
2022/09/04 13:25:15;;;;;;;1.37;1.27;;;26.50;67.80;;;;;;5116779;28;20433;-86
2022/09/04 13:27:56;;;;;;;1.30;1.20;;;26.50;67.80;;;;;;5116662;28;20518;-87
2022/09/04 13:30:24;;;;;;;1.20;1.10;;;26.50;67.70;;;;;;5116818;28;20480;-86
2022/09/04 13:33:08;;;;;;;1.40;1.30;;;26.50;67.80;;;;;;5116931;28;20484;-86
2022/09/04 13:35:49;;;;;;;1.37;1.27;;;26.50;67.70;;;;;;5116830;28;20442;-86
2022/09/04 13:38:39;;;;;;;1.50;1.33;;;26.50;67.70;;;;;;5116013;28;20443;-86
2022/09/04 13:41:32;;;;;;;1.60;1.50;;;26.50;67.70;;;;;;5116480;28;20569;-87
2022/09/04 13:44:17;;;;;;;2.13;1.00;;;26.50;67.70;;;;;;5116071;28;20451;-85
2022/09/04 13:46:53;;;;;;;1.40;1.30;;;26.50;67.90;;;;;;5116178;28;20553;-86
2022/09/04 13:49:28;;;;;;;1.10;1.00;;;26.50;67.80;;;;;;5116440;28;20469;-86
2022/09/04 13:52:05;;;;;;;1.10;1.00;;;26.50;67.80;;;;;;5116452;28;20445;-86
2022/09/04 13:54:36;;;;;;;1.40;1.30;;;26.50;67.70;;;;;;5117021;28;20442;-86
2022/09/04 13:57:08;;;;;;;1.10;1.00;;;26.50;67.80;;;;;;5116306;28;20869;-87
2022/09/04 13:59:36;;;;;;;1.93;0.90;;;26.50;67.80;;;;;;5116075;28;20526;-86
2022/09/04 14:02:11;;;;;;;1.40;1.30;;;26.50;67.80;;;;;;5115993;28;20444;-86
2022/09/04 14:04:43;;;;;;;1.30;1.20;;;26.60;67.80;;;;;;5115915;28;20481;-86
2022/09/04 14:07:16;;;;;;;1.30;1.20;;;26.50;67.70;;;;;;5116016;28;20478;-86
2022/09/04 14:09:46;;;;;;;1.83;1.07;;;26.50;67.70;;;;;;5116125;28;20449;-87
2022/09/04 14:12:29;;;;;;;1.27;1.17;;;26.50;67.70;;;;;;5116684;28;20529;-86
2022/09/04 14:15:19;;;;;;;1.33;1.23;;;26.60;67.70;;;;;;5115959;28;20493;-87
2022/09/04 14:17:52;;;;;;;1.50;1.40;;;26.60;67.70;;;;;;5115682;28;20482;-86